sensor_id;sensor_type;location;lat;lon;timestamp;temperature;humidity
74569;DHT22;63052;50.266;7.968;2022-10-17T00:02:26;18.90;99.90
74569;DHT22;63052;50.266;7.968;2022-10-17T00:12:28;18.90;99.90
74569;DHT22;63052;50.266;7.968;2022-10-17T00:22:31;18.90;99.90
74569;DHT22;63052;50.266;7.968;2022-10-17T00:32:33;18.90;99.90
74569;DHT22;63052;50.266;7.968;2022-10-17T00:42:36;18.90;99.90
74569;DHT22;63052;50.266;7.968;2022-10-17T00:52:39;18.90;99.90
74569;DHT22;63052;50.266;7.968;2022-10-17T01:02:43;18.90;99.90
74569;DHT22;63052;50.266;7.968;2022-10-17T01:12:54;18.90;99.90
74569;DHT22;63052;50.266;7.968;2022-10-17T01:23:03;18.90;99.90
74569;DHT22;63052;50.266;7.968;2022-10-17T01:33:08;18.90;99.90
74569;DHT22;63052;50.266;7.968;2022-10-17T01:43:22;18.90;99.90
74569;DHT22;63052;50.266;7.968;2022-10-17T01:53:27;18.90;99.90
74569;DHT22;63052;50.266;7.968;2022-10-17T02:03:31;18.90;99.90
74569;DHT22;63052;50.266;7.968;2022-10-17T02:34:23;18.90;99.90
74569;DHT22;63052;50.266;7.968;2022-10-17T02:44:26;18.90;99.90
74569;DHT22;63052;50.266;7.968;2022-10-17T02:54:41;18.80;99.90
74569;DHT22;63052;50.266;7.968;2022-10-17T03:04:45;18.80;99.90
74569;DHT22;63052;50.266;7.968;2022-10-17T03:14:47;18.80;99.90
74569;DHT22;63052;50.266;7.968;2022-10-17T03:24:50;18.80;99.90
74569;DHT22;63052;50.266;7.968;2022-10-17T03:34:52;18.80;99.90
74569;DHT22;63052;50.266;7.968;2022-10-17T03:44:55;18.80;99.90
74569;DHT22;63052;50.266;7.968;2022-10-17T03:54:57;18.70;99.90
74569;DHT22;63052;50.266;7.968;2022-10-17T04:05:00;18.70;99.90
74569;DHT22;63052;50.266;7.968;2022-10-17T04:15:03;18.70;99.90
74569;DHT22;63052;50.266;7.968;2022-10-17T04:25:06;18.70;99.90
74569;DHT22;63052;50.266;7.968;2022-10-17T04:35:08;18.70;99.90
74569;DHT22;63052;50.266;7.968;2022-10-17T04:45:11;18.70;99.90
74569;DHT22;63052;50.266;7.968;2022-10-17T04:55:13;18.70;99.90
74569;DHT22;63052;50.266;7.968;2022-10-17T05:05:16;18.70;99.90
74569;DHT22;63052;50.266;7.968;2022-10-17T05:15:18;18.70;99.90
74569;DHT22;63052;50.266;7.968;2022-10-17T05:25:21;18.70;99.90
74569;DHT22;63052;50.266;7.968;2022-10-17T05:35:24;18.70;99.90
74569;DHT22;63052;50.266;7.968;2022-10-17T05:45:27;18.70;99.90
74569;DHT22;63052;50.266;7.968;2022-10-17T05:55:29;18.60;99.90
74569;DHT22;63052;50.266;7.968;2022-10-17T06:05:34;18.60;99.90
74569;DHT22;63052;50.266;7.968;2022-10-17T06:15:36;18.60;99.90
74569;DHT22;63052;50.266;7.968;2022-10-17T06:25:39;18.60;99.90
74569;DHT22;63052;50.266;7.968;2022-10-17T06:35:41;18.60;99.90
74569;DHT22;63052;50.266;7.968;2022-10-17T06:45:45;18.60;99.90
74569;DHT22;63052;50.266;7.968;2022-10-17T06:55:52;18.60;99.90
74569;DHT22;63052;50.266;7.968;2022-10-17T07:05:56;18.70;99.90
74569;DHT22;63052;50.266;7.968;2022-10-17T07:15:59;18.70;99.90
74569;DHT22;63052;50.266;7.968;2022-10-17T07:26:04;18.70;99.90
74569;DHT22;63052;50.266;7.968;2022-10-17T07:36:10;18.70;99.90
74569;DHT22;63052;50.266;7.968;2022-10-17T07:46:12;18.80;99.90
74569;DHT22;63052;50.266;7.968;2022-10-17T07:56:15;18.80;99.90
74569;DHT22;63052;50.266;7.968;2022-10-17T08:06:17;18.90;99.90
74569;DHT22;63052;50.266;7.968;2022-10-17T08:16:20;19.00;99.90
74569;DHT22;63052;50.266;7.968;2022-10-17T08:26:22;19.20;99.90
74569;DHT22;63052;50.266;7.968;2022-10-17T08:36:25;19.30;99.90
74569;DHT22;63052;50.266;7.968;2022-10-17T08:46:31;19.40;99.90
74569;DHT22;63052;50.266;7.968;2022-10-17T08:56:48;19.60;99.90
74569;DHT22;63052;50.266;7.968;2022-10-17T09:07:26;19.70;99.90
74569;DHT22;63052;50.266;7.968;2022-10-17T09:27:43;20.10;99.90
74569;DHT22;63052;50.266;7.968;2022-10-17T09:37:46;20.20;99.90
74569;DHT22;63052;50.266;7.968;2022-10-17T09:58:04;20.40;99.90
74569;DHT22;63052;50.266;7.968;2022-10-17T10:08:17;20.50;99.90
74569;DHT22;63052;50.266;7.968;2022-10-17T10:18:29;20.50;99.90
74569;DHT22;63052;50.266;7.968;2022-10-17T10:28:34;20.60;99.90
74569;DHT22;63052;50.266;7.968;2022-10-17T10:38:38;20.70;99.90
74569;DHT22;63052;50.266;7.968;2022-10-17T10:48:57;20.70;99.90
74569;DHT22;63052;50.266;7.968;2022-10-17T11:09:24;20.70;99.90
74569;DHT22;63052;50.266;7.968;2022-10-17T11:19:40;20.70;99.90
74569;DHT22;63052;50.266;7.968;2022-10-17T11:29:43;20.70;99.90
74569;DHT22;63052;50.266;7.968;2022-10-17T11:39:51;20.70;99.90
74569;DHT22;63052;50.266;7.968;2022-10-17T12:20:36;20.80;99.90
74569;DHT22;63052;50.266;7.968;2022-10-17T12:31:01;20.80;99.90
74569;DHT22;63052;50.266;7.968;2022-10-17T12:41:06;20.80;99.90
74569;DHT22;63052;50.266;7.968;2022-10-17T12:51:15;20.90;99.90
74569;DHT22;63052;50.266;7.968;2022-10-17T13:01:35;20.90;99.90
74569;DHT22;63052;50.266;7.968;2022-10-17T13:11:34;20.90;99.90
74569;DHT22;63052;50.266;7.968;2022-10-17T13:21:37;20.90;99.90
74569;DHT22;63052;50.266;7.968;2022-10-17T13:31:42;20.90;99.90
74569;DHT22;63052;50.266;7.968;2022-10-17T13:41:45;21.00;99.90
74569;DHT22;63052;50.266;7.968;2022-10-17T13:51:50;21.00;99.90
74569;DHT22;63052;50.266;7.968;2022-10-17T14:01:53;20.90;99.90
74569;DHT22;63052;50.266;7.968;2022-10-17T14:12:09;21.00;99.90
74569;DHT22;63052;50.266;7.968;2022-10-17T14:32:28;21.00;99.90
74569;DHT22;63052;50.266;7.968;2022-10-17T14:42:31;21.00;99.90
74569;DHT22;63052;50.266;7.968;2022-10-17T14:52:36;21.00;99.90
74569;DHT22;63052;50.266;7.968;2022-10-17T15:02:39;21.00;99.90
74569;DHT22;63052;50.266;7.968;2022-10-17T15:12:41;21.00;99.90
74569;DHT22;63052;50.266;7.968;2022-10-17T15:22:44;21.00;99.90
74569;DHT22;63052;50.266;7.968;2022-10-17T15:32:47;21.00;99.90
74569;DHT22;63052;50.266;7.968;2022-10-17T15:42:50;21.00;99.90
74569;DHT22;63052;50.266;7.968;2022-10-17T15:52:53;20.90;99.90
74569;DHT22;63052;50.266;7.968;2022-10-17T16:02:55;20.90;99.90
74569;DHT22;63052;50.266;7.968;2022-10-17T16:12:58;20.90;99.90
74569;DHT22;63052;50.266;7.968;2022-10-17T16:23:01;20.90;99.90
74569;DHT22;63052;50.266;7.968;2022-10-17T16:33:04;20.90;99.90
74569;DHT22;63052;50.266;7.968;2022-10-17T16:43:09;20.80;99.90
74569;DHT22;63052;50.266;7.968;2022-10-17T16:53:13;20.80;99.90
74569;DHT22;63052;50.266;7.968;2022-10-17T17:03:15;20.80;99.90
74569;DHT22;63052;50.266;7.968;2022-10-17T17:13:18;20.80;99.90
74569;DHT22;63052;50.266;7.968;2022-10-17T17:23:20;20.70;99.90
74569;DHT22;63052;50.266;7.968;2022-10-17T17:33:23;20.70;99.90
74569;DHT22;63052;50.266;7.968;2022-10-17T17:43:26;20.70;99.90
74569;DHT22;63052;50.266;7.968;2022-10-17T17:53:29;20.70;99.90
74569;DHT22;63052;50.266;7.968;2022-10-17T18:03:31;20.60;99.90
74569;DHT22;63052;50.266;7.968;2022-10-17T18:13:34;20.60;99.90
74569;DHT22;63052;50.266;7.968;2022-10-17T18:23:44;20.60;99.90
74569;DHT22;63052;50.266;7.968;2022-10-17T18:33:47;20.60;99.90
74569;DHT22;63052;50.266;7.968;2022-10-17T18:43:52;20.60;99.90
74569;DHT22;63052;50.266;7.968;2022-10-17T18:53:56;20.50;99.90
74569;DHT22;63052;50.266;7.968;2022-10-17T19:04:02;20.50;99.90
74569;DHT22;63052;50.266;7.968;2022-10-17T19:14:07;20.50;99.90
74569;DHT22;63052;50.266;7.968;2022-10-17T19:24:15;20.50;99.90
74569;DHT22;63052;50.266;7.968;2022-10-17T19:34:18;20.50;99.90
74569;DHT22;63052;50.266;7.968;2022-10-17T19:44:20;20.50;99.90
74569;DHT22;63052;50.266;7.968;2022-10-17T19:54:23;20.50;99.90
74569;DHT22;63052;50.266;7.968;2022-10-17T20:04:25;20.40;99.90
74569;DHT22;63052;50.266;7.968;2022-10-17T20:14:28;20.40;99.90
74569;DHT22;63052;50.266;7.968;2022-10-17T20:24:30;20.40;99.90
74569;DHT22;63052;50.266;7.968;2022-10-17T20:34:33;20.40;99.90
74569;DHT22;63052;50.266;7.968;2022-10-17T20:44:36;20.40;99.90
74569;DHT22;63052;50.266;7.968;2022-10-17T20:54:38;20.40;99.90
74569;DHT22;63052;50.266;7.968;2022-10-17T21:04:41;20.40;99.90
74569;DHT22;63052;50.266;7.968;2022-10-17T21:14:43;20.30;99.90
74569;DHT22;63052;50.266;7.968;2022-10-17T21:24:46;20.30;99.90
74569;DHT22;63052;50.266;7.968;2022-10-17T21:34:48;20.30;99.90
74569;DHT22;63052;50.266;7.968;2022-10-17T21:44:51;20.30;99.90
74569;DHT22;63052;50.266;7.968;2022-10-17T21:54:53;20.30;99.90
74569;DHT22;63052;50.266;7.968;2022-10-17T22:04:56;20.30;99.90
74569;DHT22;63052;50.266;7.968;2022-10-17T22:14:58;20.30;99.90
74569;DHT22;63052;50.266;7.968;2022-10-17T22:25:01;20.20;99.90
74569;DHT22;63052;50.266;7.968;2022-10-17T22:35:03;20.20;99.90
74569;DHT22;63052;50.266;7.968;2022-10-17T22:45:06;20.20;99.90
74569;DHT22;63052;50.266;7.968;2022-10-17T22:55:09;20.20;99.90
74569;DHT22;63052;50.266;7.968;2022-10-17T23:05:11;20.20;99.90
74569;DHT22;63052;50.266;7.968;2022-10-17T23:15:14;20.20;99.90
74569;DHT22;63052;50.266;7.968;2022-10-17T23:25:16;20.20;99.90
74569;DHT22;63052;50.266;7.968;2022-10-17T23:35:19;20.20;99.90
74569;DHT22;63052;50.266;7.968;2022-10-17T23:45:22;20.20;99.90
74569;DHT22;63052;50.266;7.968;2022-10-17T23:55:24;20.10;99.90
